createdAt,value
2019-05-02T00:02:12.218Z,9.58
2019-05-02T00:04:39.268Z,5.05
2019-05-02T00:07:07.704Z,9.30
2019-05-02T00:09:35.248Z,9.18
2019-05-02T00:12:04.222Z,8.85
2019-05-02T00:14:31.501Z,7.55
2019-05-02T00:16:58.566Z,9.23
2019-05-02T00:19:26.548Z,7.95
2019-05-02T00:21:56.295Z,6.60
2019-05-02T00:24:25.737Z,8.98
2019-05-02T00:26:56.177Z,9.08
2019-05-02T00:29:25.026Z,9.33
2019-05-02T00:31:52.174Z,7.42
2019-05-02T00:34:19.239Z,8.63
2019-05-02T00:36:46.839Z,7.17
2019-05-02T00:39:15.184Z,5.95
2019-05-02T00:41:42.690Z,5.90
2019-05-02T00:44:10.973Z,6.30
2019-05-02T00:46:38.982Z,7.33
2019-05-02T00:49:06.157Z,7.50
2019-05-02T00:51:33.286Z,6.25
2019-05-02T00:54:00.417Z,6.58
2019-05-02T00:56:27.505Z,5.17
2019-05-02T00:58:54.612Z,6.28
2019-05-02T01:01:30.982Z,7.10
2019-05-02T01:04:01.538Z,5.92
2019-05-02T01:06:28.729Z,6.55
2019-05-02T01:08:55.904Z,3.77
2019-05-02T01:11:22.959Z,5.87
2019-05-02T01:13:50.329Z,7.08
2019-05-02T01:16:20.259Z,5.47
2019-05-02T01:18:47.440Z,4.17
2019-05-02T01:21:14.498Z,6.03
2019-05-02T01:23:41.820Z,5.67
2019-05-02T01:26:10.591Z,4.85
2019-05-02T01:28:59.863Z,8.50
2019-05-02T01:31:31.455Z,8.95
2019-05-02T01:34:12.985Z,8.50
2019-05-02T01:36:55.745Z,7.00
2019-05-02T01:39:22.791Z,7.22
2019-05-02T01:41:49.833Z,7.90
2019-05-02T01:44:16.913Z,7.42
2019-05-02T01:46:43.933Z,9.18
2019-05-02T01:49:10.955Z,6.80
2019-05-02T01:51:41.847Z,7.25
2019-05-02T01:54:10.063Z,8.05
2019-05-02T01:56:37.744Z,6.20
2019-05-02T01:59:05.469Z,5.37
2019-05-02T02:01:32.595Z,6.47
2019-05-02T02:03:59.677Z,6.83
2019-05-02T02:06:26.903Z,5.20
2019-05-02T02:08:53.978Z,8.18
2019-05-02T02:11:21.987Z,5.60
2019-05-02T02:13:49.374Z,7.45
2019-05-02T02:16:16.543Z,7.15
2019-05-02T02:18:45.457Z,6.25
2019-05-02T02:21:27.704Z,7.80
2019-05-02T02:23:56.746Z,8.33
2019-05-02T02:26:25.001Z,6.65
2019-05-02T02:28:52.333Z,7.53
2019-05-02T02:31:20.399Z,4.83
2019-05-02T02:33:49.970Z,5.12
2019-05-02T02:36:29.553Z,6.75
2019-05-02T02:38:45.838Z,5.10
2019-05-02T02:41:15.267Z,5.90
2019-05-02T02:43:44.976Z,5.65
2019-05-02T02:46:30.886Z,4.87
2019-05-02T02:48:54.690Z,6.42
2019-05-02T02:51:24.219Z,5.08
2019-05-02T02:54:02.656Z,5.60
2019-05-02T02:56:19.821Z,5.75
2019-05-02T02:58:47.994Z,5.50
2019-05-02T03:01:27.525Z,4.65
2019-05-02T03:03:44.399Z,5.08
2019-05-02T03:06:11.448Z,3.77
2019-05-02T03:08:46.638Z,4.03
2019-05-02T03:11:09.122Z,5.28
2019-05-02T03:13:52.395Z,4.50
2019-05-02T03:16:14.746Z,5.17
2019-05-02T03:18:43.379Z,4.90
2019-05-02T03:21:13.305Z,3.83
2019-05-02T03:23:39.589Z,4.33
2019-05-02T03:26:08.156Z,3.90
2019-05-02T03:28:35.532Z,4.28
2019-05-02T03:31:20.979Z,2.75
2019-05-02T03:33:41.808Z,3.80
2019-05-02T03:36:00.520Z,4.15
2019-05-02T03:38:32.416Z,3.90
2019-05-02T03:40:57.439Z,4.67
2019-05-02T03:43:25.481Z,3.72
2019-05-02T03:45:54.057Z,4.15
2019-05-02T03:48:25.830Z,4.10
2019-05-02T03:50:50.190Z,4.10
2019-05-02T03:53:24.969Z,3.50
2019-05-02T03:55:47.191Z,4.58
2019-05-02T03:58:17.325Z,4.37
2019-05-02T04:00:47.112Z,4.65
2019-05-02T04:03:14.214Z,4.03
2019-05-02T04:05:42.342Z,3.37
2019-05-02T04:08:19.760Z,4.28
2019-05-02T04:10:45.128Z,3.92
2019-05-02T04:13:12.272Z,3.98
2019-05-02T04:15:39.352Z,4.60
2019-05-02T04:18:08.370Z,4.30
2019-05-02T04:20:37.037Z,3.58
2019-05-02T04:23:04.744Z,3.85
2019-05-02T04:25:34.025Z,3.42
2019-05-02T04:28:05.953Z,3.92
2019-05-02T04:30:32.607Z,4.33
2019-05-02T04:33:00.018Z,4.12
2019-05-02T04:35:28.836Z,4.25
2019-05-02T04:37:59.139Z,4.95
2019-05-02T04:40:24.788Z,4.60
2019-05-02T04:43:02.006Z,3.22
2019-05-02T04:45:29.077Z,4.00
2019-05-02T04:47:58.623Z,2.95
2019-05-02T04:50:24.728Z,5.30
2019-05-02T04:52:53.825Z,3.08
2019-05-02T04:55:26.243Z,4.22
2019-05-02T04:57:50.871Z,3.10
2019-05-02T05:00:20.479Z,3.72
2019-05-02T05:02:48.444Z,3.52
2019-05-02T05:05:17.332Z,3.83
2019-05-02T05:07:46.511Z,2.47
2019-05-02T05:10:18.497Z,2.70
2019-05-02T05:12:47.891Z,3.50
2019-05-02T05:15:33.724Z,2.77
2019-05-02T05:17:44.713Z,4.65
2019-05-02T05:20:15.511Z,5.45
2019-05-02T05:22:44.355Z,3.37
2019-05-02T05:25:28.119Z,2.95
2019-05-02T05:27:58.678Z,3.50
2019-05-02T05:30:24.229Z,3.17
2019-05-02T05:32:51.256Z,3.87
2019-05-02T05:35:18.276Z,2.58
2019-05-02T05:37:49.036Z,2.30
2019-05-02T05:40:14.183Z,1.95
2019-05-02T05:42:41.323Z,1.90
2019-05-02T05:45:09.678Z,1.30
2019-05-02T05:47:37.852Z,0.90
2019-05-02T05:50:05.180Z,1.30
2019-05-02T05:52:32.960Z,0.82
2019-05-02T05:55:01.092Z,1.20
2019-05-02T05:57:32.025Z,1.00
2019-05-02T06:00:03.823Z,1.15
2019-05-02T06:02:29.264Z,0.98
2019-05-02T06:05:02.541Z,1.00
2019-05-02T06:07:25.572Z,1.20
2019-05-02T06:09:52.684Z,1.20
2019-05-02T06:12:20.842Z,1.05
2019-05-02T06:14:47.900Z,1.85
2019-05-02T06:17:14.921Z,1.40
2019-05-02T06:19:41.992Z,1.35
2019-05-02T06:22:09.497Z,1.50
2019-05-02T06:24:37.429Z,1.67
2019-05-02T06:27:05.405Z,1.27
2019-05-02T06:29:32.652Z,1.12
2019-05-02T06:32:02.849Z,2.30
2019-05-02T06:34:29.909Z,2.10
2019-05-02T06:36:56.930Z,1.80
2019-05-02T06:39:27.154Z,2.12
2019-05-02T06:41:57.499Z,1.70
2019-05-02T06:44:24.100Z,1.50
2019-05-02T06:46:50.878Z,1.47
2019-05-02T06:49:18.060Z,1.90
2019-05-02T06:51:45.171Z,2.40
2019-05-02T06:54:12.218Z,2.17
2019-05-02T06:56:43.186Z,1.90
2019-05-02T06:59:13.133Z,1.32
2019-05-02T07:01:38.463Z,1.10
2019-05-02T07:04:05.551Z,1.82
2019-05-02T07:06:42.455Z,1.35
2019-05-02T07:09:01.786Z,1.98
2019-05-02T07:11:33.218Z,1.50
2019-05-02T07:14:12.620Z,1.40
2019-05-02T07:16:38.681Z,1.30
2019-05-02T07:19:07.191Z,1.15
2019-05-02T07:21:34.153Z,1.67
2019-05-02T07:24:01.174Z,0.90
2019-05-02T07:26:28.202Z,1.37
2019-05-02T07:28:55.366Z,1.00
2019-05-02T07:31:22.564Z,0.95
2019-05-02T07:33:49.702Z,1.20
2019-05-02T07:36:16.865Z,1.30
2019-05-02T07:38:43.963Z,1.00
2019-05-02T07:41:11.687Z,1.02
2019-05-02T07:43:38.829Z,1.15
2019-05-02T07:46:06.011Z,1.00
2019-05-02T07:48:33.163Z,1.05
2019-05-02T07:51:00.340Z,1.27
2019-05-02T07:53:27.417Z,1.40
2019-05-02T07:55:56.836Z,1.00
2019-05-02T07:58:26.299Z,1.00
2019-05-02T08:00:54.467Z,1.50
2019-05-02T08:03:21.593Z,1.80
2019-05-02T08:05:48.824Z,1.50
2019-05-02T08:08:16.007Z,1.67
2019-05-02T08:10:44.284Z,1.62
2019-05-02T08:13:12.107Z,1.55
2019-05-02T08:15:40.156Z,1.35
2019-05-02T08:18:08.183Z,1.77
2019-05-02T08:20:36.336Z,1.82
2019-05-02T08:23:03.486Z,1.80
2019-05-02T08:25:30.642Z,1.87
2019-05-02T08:28:00.409Z,2.20
2019-05-02T08:30:35.457Z,2.12
2019-05-02T08:33:00.722Z,1.52
2019-05-02T08:35:28.385Z,2.35
2019-05-02T08:37:56.167Z,2.40
2019-05-02T08:40:23.576Z,2.65
2019-05-02T08:42:50.753Z,1.95
2019-05-02T08:45:17.862Z,2.47
2019-05-02T08:47:45.840Z,2.55
2019-05-02T08:50:16.283Z,2.00
2019-05-02T08:52:44.187Z,2.00
2019-05-02T08:55:11.585Z,2.02
2019-05-02T08:57:38.786Z,2.08
2019-05-02T09:00:09.029Z,1.57
2019-05-02T09:02:41.567Z,1.57
2019-05-02T09:05:06.119Z,1.67
2019-05-02T09:07:36.984Z,2.08
2019-05-02T09:10:05.795Z,1.82
2019-05-02T09:12:36.944Z,1.30
2019-05-02T09:15:04.463Z,1.42
2019-05-02T09:17:36.095Z,1.67
2019-05-02T09:20:05.040Z,1.85
2019-05-02T09:22:29.627Z,2.00
2019-05-02T09:24:56.758Z,1.80
2019-05-02T09:27:23.838Z,1.77
2019-05-02T09:29:51.905Z,1.62
2019-05-02T09:32:24.786Z,1.60
2019-05-02T09:34:49.302Z,1.77
2019-05-02T09:37:16.360Z,1.60
2019-05-02T09:39:43.724Z,2.30
2019-05-02T09:42:12.464Z,2.00
2019-05-02T09:44:39.766Z,2.05
2019-05-02T09:47:09.043Z,2.75
2019-05-02T09:49:36.054Z,2.67
2019-05-02T09:52:03.435Z,3.08
2019-05-02T09:54:32.226Z,3.58
2019-05-02T09:56:59.417Z,1.80
2019-05-02T09:59:33.076Z,1.47
2019-05-02T10:02:01.992Z,1.37
2019-05-02T10:04:29.225Z,1.47
2019-05-02T10:06:56.377Z,2.00
2019-05-02T10:09:27.294Z,2.75
2019-05-02T10:11:54.692Z,2.15
2019-05-02T10:14:22.663Z,1.80
2019-05-02T10:16:50.028Z,2.35
2019-05-02T10:19:17.656Z,2.62
2019-05-02T10:21:46.989Z,2.02
2019-05-02T10:24:14.784Z,2.35
2019-05-02T10:26:42.704Z,2.80
2019-05-02T10:29:12.695Z,2.52
2019-05-02T10:31:42.383Z,2.60
2019-05-02T10:34:16.253Z,1.95
2019-05-02T10:36:38.861Z,2.22
2019-05-02T10:39:07.197Z,2.30
2019-05-02T10:41:39.507Z,1.82
2019-05-02T10:44:03.409Z,2.60
2019-05-02T10:46:37.679Z,2.70
2019-05-02T10:49:05.970Z,2.42
2019-05-02T10:51:34.043Z,2.45
2019-05-02T10:54:03.049Z,2.12
2019-05-02T10:56:32.288Z,2.35
2019-05-02T10:58:58.947Z,1.92
2019-05-02T11:01:28.883Z,2.17
2019-05-02T11:03:57.819Z,1.92
2019-05-02T11:06:24.851Z,1.80
2019-05-02T11:08:52.635Z,1.50
2019-05-02T11:11:21.746Z,1.75
2019-05-02T11:14:00.431Z,1.90
2019-05-02T11:16:23.889Z,1.67
2019-05-02T11:18:55.274Z,1.60
2019-05-02T11:21:22.929Z,1.60
2019-05-02T11:23:52.606Z,1.30
2019-05-02T11:26:23.191Z,1.62
2019-05-02T11:28:48.736Z,1.98
2019-05-02T11:31:16.541Z,1.70
2019-05-02T11:33:43.749Z,1.52
2019-05-02T11:36:10.781Z,1.35
2019-05-02T11:38:38.812Z,1.77
2019-05-02T11:41:06.694Z,1.15
2019-05-02T11:43:37.106Z,1.25
2019-05-02T11:46:12.048Z,1.22
2019-05-02T11:48:38.958Z,1.80
2019-05-02T11:51:07.427Z,1.22
2019-05-02T11:53:34.877Z,0.90
2019-05-02T11:56:03.681Z,1.32
2019-05-02T11:58:32.503Z,1.25
2019-05-02T12:01:04.840Z,1.20
2019-05-02T12:03:35.580Z,1.10
2019-05-02T12:06:01.962Z,0.88
2019-05-02T12:08:29.085Z,1.50
2019-05-02T12:10:56.146Z,1.40
2019-05-02T12:13:23.243Z,1.45
2019-05-02T12:15:51.941Z,1.65
2019-05-02T12:18:22.536Z,1.10
2019-05-02T12:20:48.203Z,1.00
2019-05-02T12:23:15.363Z,1.10
2019-05-02T12:25:42.538Z,1.30
2019-05-02T12:28:11.816Z,1.37
2019-05-02T12:30:38.669Z,1.27
2019-05-02T12:33:05.841Z,1.37
2019-05-02T12:35:32.988Z,1.52
2019-05-02T12:38:02.558Z,1.40
2019-05-02T12:40:32.459Z,1.65
2019-05-02T12:42:59.695Z,1.87
2019-05-02T12:45:26.857Z,1.65
2019-05-02T12:47:53.882Z,1.55
2019-05-02T12:50:22.571Z,1.30
2019-05-02T12:52:52.041Z,2.05
2019-05-02T12:55:19.019Z,1.22
2019-05-02T12:57:46.239Z,0.98
2019-05-02T13:00:14.572Z,1.57
2019-05-02T13:02:43.530Z,1.40
2019-05-02T13:05:10.765Z,1.50
2019-05-02T13:07:37.868Z,1.50
2019-05-02T13:10:06.509Z,1.75
2019-05-02T13:12:42.054Z,1.00
2019-05-02T13:15:09.898Z,1.40
2019-05-02T13:17:43.899Z,1.30
2019-05-02T13:20:09.223Z,1.52
2019-05-02T13:22:38.051Z,1.60
2019-05-02T13:25:10.297Z,1.27
2019-05-02T13:27:43.367Z,1.50
2019-05-02T13:30:08.291Z,1.30
2019-05-02T13:32:37.252Z,1.87
2019-05-02T13:35:12.864Z,1.30
2019-05-02T13:37:42.305Z,1.02
2019-05-02T13:40:17.285Z,1.35
2019-05-02T13:42:44.409Z,1.45
2019-05-02T13:45:21.789Z,1.35
2019-05-02T13:47:48.963Z,1.20
2019-05-02T13:50:18.463Z,1.80
2019-05-02T13:52:52.987Z,1.42
2019-05-02T13:55:16.141Z,1.35
2019-05-02T13:57:46.855Z,1.22
2019-05-02T14:00:14.177Z,1.70
2019-05-02T14:02:42.768Z,1.20
2019-05-02T14:05:13.699Z,1.62
2019-05-02T14:07:42.962Z,1.75
2019-05-02T14:10:32.173Z,1.55
2019-05-02T14:13:03.237Z,1.50
2019-05-02T14:15:34.284Z,1.30
2019-05-02T14:18:02.518Z,1.87
2019-05-02T14:20:29.731Z,1.30
2019-05-02T14:22:56.829Z,1.60
2019-05-02T14:25:23.971Z,1.30
2019-05-02T14:27:52.415Z,1.40
2019-05-02T14:30:35.649Z,1.07
2019-05-02T14:32:52.364Z,1.40
2019-05-02T14:35:36.101Z,1.30
2019-05-02T14:38:10.000Z,1.30
2019-05-02T14:40:42.367Z,1.65
2019-05-02T14:43:09.392Z,1.50
2019-05-02T14:45:36.400Z,1.30
2019-05-02T14:48:17.917Z,1.90
2019-05-02T14:50:36.535Z,1.52
2019-05-02T14:53:05.207Z,1.90
2019-05-02T14:55:34.486Z,1.10
2019-05-02T14:58:05.688Z,2.00
2019-05-02T15:00:39.362Z,1.65
2019-05-02T15:03:03.385Z,1.50
2019-05-02T15:05:32.576Z,2.30
2019-05-02T15:08:02.537Z,1.87
2019-05-02T15:10:33.682Z,2.00
2019-05-02T15:13:01.138Z,1.75
2019-05-02T15:15:33.518Z,1.65
2019-05-02T15:17:57.728Z,1.60
2019-05-02T15:20:36.508Z,2.00
2019-05-02T15:22:54.659Z,1.87
2019-05-02T15:25:21.843Z,1.47
2019-05-02T15:27:49.970Z,2.50
2019-05-02T15:30:18.081Z,1.50
2019-05-02T15:32:47.021Z,2.10
2019-05-02T15:35:17.747Z,2.30
2019-05-02T15:37:45.695Z,1.57
2019-05-02T15:40:43.445Z,1.80
2019-05-02T15:42:48.226Z,1.82
2019-05-02T15:45:15.602Z,1.70
2019-05-02T15:47:45.310Z,1.50
2019-05-02T15:50:14.714Z,1.85
2019-05-02T15:52:42.909Z,2.10
2019-05-02T15:55:11.611Z,2.12
2019-05-02T15:57:43.611Z,2.00
2019-05-02T16:00:10.015Z,2.02
2019-05-02T16:02:37.090Z,2.00
2019-05-02T16:05:07.547Z,1.60
2019-05-02T16:07:38.083Z,1.70
2019-05-02T16:10:10.332Z,1.95
2019-05-02T16:12:39.007Z,1.42
2019-05-02T16:15:13.222Z,2.30
2019-05-02T16:17:35.521Z,1.70
2019-05-02T16:20:13.467Z,2.22
2019-05-02T16:22:46.155Z,2.27
2019-05-02T16:25:12.407Z,1.82
2019-05-02T16:27:44.273Z,1.40
2019-05-02T16:30:16.691Z,1.52
2019-05-02T16:32:45.635Z,1.40
2019-05-02T16:35:17.410Z,1.70
2019-05-02T16:37:46.662Z,2.22
2019-05-02T16:40:13.626Z,1.50
2019-05-02T16:42:41.955Z,1.50
2019-05-02T16:45:11.755Z,1.47
2019-05-02T16:47:38.942Z,1.75
2019-05-02T16:50:07.515Z,1.87
2019-05-02T16:52:38.025Z,1.85
2019-05-02T16:55:07.055Z,1.75
2019-05-02T16:57:35.148Z,2.17
2019-05-02T17:00:12.671Z,2.42
2019-05-02T17:02:43.555Z,2.12
2019-05-02T17:05:09.698Z,2.00
2019-05-02T17:07:42.890Z,1.67
2019-05-02T17:10:26.929Z,1.55
2019-05-02T17:12:57.705Z,2.08
2019-05-02T17:15:35.334Z,2.10
2019-05-02T17:18:12.767Z,1.67
2019-05-02T17:20:32.877Z,2.50
2019-05-02T17:23:03.298Z,2.10
2019-05-02T17:25:28.876Z,1.80
2019-05-02T17:28:03.918Z,1.65
2019-05-02T17:30:24.814Z,2.55
2019-05-02T17:32:51.826Z,1.75
2019-05-02T17:35:22.016Z,1.40
2019-05-02T17:37:49.972Z,1.37
2019-05-02T17:40:22.476Z,1.87
2019-05-02T17:42:46.636Z,0.93
2019-05-02T17:45:14.332Z,1.00
2019-05-02T17:47:41.371Z,1.32
2019-05-02T17:50:16.333Z,1.67
2019-05-02T17:52:44.507Z,1.40
2019-05-02T17:55:12.154Z,1.65
2019-05-02T17:57:39.225Z,1.72
2019-05-02T18:00:13.224Z,1.95
2019-05-02T18:02:37.443Z,1.65
2019-05-02T18:05:07.258Z,1.87
2019-05-02T18:07:36.143Z,1.30
2019-05-02T18:10:13.617Z,1.22
2019-05-02T18:12:34.290Z,1.10
2019-05-02T18:15:03.181Z,1.32
2019-05-02T18:17:31.904Z,1.60
2019-05-02T18:20:02.247Z,1.12
2019-05-02T18:22:27.811Z,1.10
2019-05-02T18:24:54.833Z,2.02
2019-05-02T18:27:22.234Z,1.70
2019-05-02T18:29:49.393Z,1.30
2019-05-02T18:32:24.459Z,1.30
2019-05-02T18:34:47.063Z,1.37
2019-05-02T18:37:14.078Z,1.02
2019-05-02T18:39:49.927Z,1.50
2019-05-02T18:42:11.813Z,0.70
2019-05-02T18:44:38.801Z,1.12
2019-05-02T18:47:06.072Z,1.02
2019-05-02T18:49:35.550Z,0.80
2019-05-02T18:52:03.241Z,0.80
2019-05-02T18:54:30.651Z,1.15
2019-05-02T18:56:57.965Z,0.70
2019-05-02T18:59:27.146Z,0.70
2019-05-02T19:01:56.266Z,0.90
2019-05-02T19:04:25.411Z,0.75
2019-05-02T19:06:52.681Z,1.22
2019-05-02T19:09:24.932Z,1.27
2019-05-02T19:11:52.343Z,0.98
2019-05-02T19:14:22.265Z,1.17
2019-05-02T19:16:48.921Z,1.00
2019-05-02T19:19:16.586Z,2.20
2019-05-02T19:21:45.411Z,1.00
2019-05-02T19:24:14.038Z,0.75
2019-05-02T19:26:49.047Z,0.93
2019-05-02T19:29:17.220Z,1.30
2019-05-02T19:31:46.383Z,1.23
2019-05-02T19:34:16.891Z,2.40
2019-05-02T19:36:43.592Z,1.35
2019-05-02T19:39:12.566Z,1.20
2019-05-02T19:41:44.020Z,1.40
2019-05-02T19:44:09.138Z,1.00
2019-05-02T19:46:38.865Z,0.80
2019-05-02T19:49:06.845Z,1.02
2019-05-02T19:51:34.554Z,1.07
2019-05-02T19:54:03.603Z,1.42
2019-05-02T19:56:43.951Z,1.00
2019-05-02T19:59:03.045Z,1.07
2019-05-02T20:01:30.674Z,1.32
2019-05-02T20:04:02.306Z,1.20
2019-05-02T20:06:27.701Z,1.02
2019-05-02T20:08:59.251Z,1.40
2019-05-02T20:11:32.954Z,0.78
2019-05-02T20:14:04.217Z,1.12
2019-05-02T20:16:36.696Z,0.90
2019-05-02T20:19:04.154Z,0.95
2019-05-02T20:21:37.672Z,0.93
2019-05-02T20:24:09.158Z,0.80
2019-05-02T20:26:34.616Z,0.68
2019-05-02T20:29:02.300Z,1.02
2019-05-02T20:31:29.572Z,0.72
2019-05-02T20:33:56.721Z,1.15
2019-05-02T20:36:24.137Z,1.30
2019-05-02T20:38:52.534Z,0.93
2019-05-02T20:41:22.445Z,0.78
2019-05-02T20:43:51.651Z,1.00
2019-05-02T20:46:19.365Z,1.00
2019-05-02T20:48:46.417Z,1.22
2019-05-02T20:51:13.805Z,0.90
2019-05-02T20:53:42.080Z,1.27
2019-05-02T20:56:09.712Z,1.10
2019-05-02T20:58:38.568Z,1.10
2019-05-02T21:01:08.943Z,1.10
2019-05-02T21:03:36.349Z,1.00
2019-05-02T21:06:17.619Z,0.85
2019-05-02T21:08:52.657Z,1.47
2019-05-02T21:11:19.889Z,1.05
2019-05-02T21:13:47.053Z,0.80
2019-05-02T21:16:15.362Z,1.20
2019-05-02T21:18:43.002Z,1.22
2019-05-02T21:21:12.630Z,1.10
2019-05-02T21:23:46.454Z,0.70
2019-05-02T21:26:09.346Z,1.05
2019-05-02T21:28:39.015Z,0.93
2019-05-02T21:31:07.335Z,0.82
2019-05-02T21:33:39.457Z,0.82
2019-05-02T21:36:07.097Z,1.00
2019-05-02T21:38:34.409Z,0.90
2019-05-02T21:41:01.438Z,0.85
2019-05-02T21:43:28.467Z,0.80
2019-05-02T21:45:55.523Z,1.60
2019-05-02T21:48:23.904Z,1.60
2019-05-02T21:50:52.758Z,1.52
2019-05-02T21:53:24.454Z,1.37
2019-05-02T21:56:05.347Z,1.90
2019-05-02T21:58:32.496Z,1.70
2019-05-02T22:01:08.569Z,2.40
2019-05-02T22:03:37.027Z,1.67
2019-05-02T22:06:04.510Z,1.77
2019-05-02T22:08:32.314Z,1.60
2019-05-02T22:10:59.585Z,1.32
2019-05-02T22:13:27.626Z,1.40
2019-05-02T22:15:54.657Z,1.20
2019-05-02T22:18:22.532Z,1.20
2019-05-02T22:20:49.591Z,1.40
2019-05-02T22:23:19.093Z,2.00
2019-05-02T22:25:46.137Z,1.75
2019-05-02T22:28:13.219Z,1.50
2019-05-02T22:30:40.241Z,1.40
2019-05-02T22:33:08.844Z,0.98
2019-05-02T22:35:36.014Z,1.20
2019-05-02T22:38:14.469Z,1.17
2019-05-02T22:40:43.361Z,1.27
2019-05-02T22:43:12.676Z,1.70
2019-05-02T22:45:41.744Z,1.15
2019-05-02T22:48:08.901Z,1.10
2019-05-02T22:50:36.034Z,1.50
2019-05-02T22:53:05.578Z,1.50
2019-05-02T22:55:32.667Z,2.17
2019-05-02T22:58:02.264Z,1.42
2019-05-02T23:00:31.915Z,1.15
2019-05-02T23:02:59.624Z,1.00
2019-05-02T23:05:26.691Z,1.47
2019-05-02T23:07:53.748Z,1.92
2019-05-02T23:10:22.063Z,1.70
2019-05-02T23:12:51.746Z,1.45
2019-05-02T23:15:18.945Z,1.47
2019-05-02T23:17:46.076Z,1.45
2019-05-02T23:20:13.096Z,1.20
2019-05-02T23:22:41.830Z,1.45
2019-05-02T23:25:22.637Z,1.10
2019-05-02T23:27:57.631Z,1.20
2019-05-02T23:30:26.357Z,1.52
2019-05-02T23:32:53.397Z,1.40
2019-05-02T23:35:20.425Z,1.20
2019-05-02T23:37:52.804Z,1.60
2019-05-02T23:40:27.684Z,1.47
2019-05-02T23:42:56.179Z,1.02
2019-05-02T23:45:23.360Z,1.60
2019-05-02T23:47:50.366Z,1.20
2019-05-02T23:50:17.330Z,1.20
2019-05-02T23:52:44.390Z,1.82
2019-05-02T23:55:12.185Z,1.77
2019-05-02T23:57:39.363Z,1.50
